Baltimore, Maryland
Traffic Map
Current Weather Conditions
Baltimore, Maryland
Broken Clouds
Broken Clouds
64°
Feels Like: 64°
Wind Chill: 64° Ceiling: 3300
Heat Index: 64° Visibility: 10mi
Dew Point: 61° Wind: 5mph
Humidity: 90% Direction: 60° (ENE)
Pressure: 29.97in Gusts: 0mph
Raw Report DataKBWI 010554Z 06004KT 10SM SCT008 SCT015 BKN033 18/16 A2997 RMK AO2 SLP147 60089 T01780161 10200 20178 53007
Traffic Incident Summary
Active as of:
Severity:
Category:
InformationThere was an issue retrieving the traffic information for this location. Please try a different location or try again shortly.
Advertisements
Track Severe Weather on mobile